createdAt,value
2023-03-13T00:00:04.058Z,9.90
2023-03-13T00:00:14.185Z,10.50
2023-03-13T00:00:24.195Z,9.90
2023-03-13T00:00:34.333Z,9.50
2023-03-13T00:00:44.385Z,9.30
2023-03-13T00:00:54.535Z,9.50
2023-03-13T00:01:04.632Z,9.50
2023-03-13T00:01:14.721Z,9.60
2023-03-13T00:01:24.817Z,9.60
2023-03-13T00:01:34.933Z,10.20
2023-03-13T00:01:45.044Z,10.00
2023-03-13T00:01:55.156Z,10.20
2023-03-13T00:02:05.342Z,9.70
2023-03-13T00:02:15.338Z,9.10
2023-03-13T00:02:25.331Z,9.30
2023-03-13T00:02:35.391Z,9.30
2023-03-13T00:02:45.496Z,9.30
2023-03-13T00:02:55.600Z,8.80
2023-03-13T00:03:05.716Z,8.80
2023-03-13T00:03:15.781Z,9.30
2023-03-13T00:03:25.901Z,9.20
2023-03-13T00:03:35.968Z,9.30
2023-03-13T00:03:46.056Z,9.80
2023-03-13T00:03:56.176Z,9.90
2023-03-13T00:04:06.263Z,9.80
2023-03-13T00:04:16.332Z,9.50
2023-03-13T00:04:26.393Z,10.10
2023-03-13T00:04:36.556Z,10.00
2023-03-13T00:04:46.673Z,10.10
2023-03-13T00:04:56.848Z,9.90
2023-03-13T00:05:07.003Z,10.10
2023-03-13T00:05:17.123Z,10.10
2023-03-13T00:05:27.204Z,9.80
2023-03-13T00:05:37.276Z,10.00
2023-03-13T00:05:47.366Z,10.50
2023-03-13T00:05:57.451Z,10.50
2023-03-13T00:06:07.582Z,9.90
2023-03-13T00:06:17.676Z,9.30
2023-03-13T00:06:27.669Z,9.80
2023-03-13T00:06:37.761Z,10.30
2023-03-13T00:06:47.838Z,10.30
2023-03-13T00:06:58.024Z,10.80
2023-03-13T00:07:08.123Z,10.90
2023-03-13T00:07:18.208Z,10.60
2023-03-13T00:07:28.298Z,9.90
2023-03-13T00:07:38.451Z,9.50
2023-03-13T00:07:48.542Z,10.30
2023-03-13T00:07:58.628Z,9.90
2023-03-13T00:08:08.723Z,10.10
2023-03-13T00:08:18.790Z,10.00
2023-03-13T00:08:28.970Z,10.20
2023-03-13T00:08:39.059Z,10.50
2023-03-13T00:08:49.220Z,10.00
2023-03-13T00:08:59.333Z,10.20
2023-03-13T00:09:09.402Z,9.80
2023-03-13T00:09:19.494Z,10.10
2023-03-13T00:09:29.587Z,9.50
2023-03-13T00:09:39.665Z,9.10
2023-03-13T00:09:49.747Z,9.00
2023-03-13T00:09:59.822Z,9.40
2023-03-13T00:10:09.901Z,9.90
2023-03-13T00:10:19.984Z,10.20
2023-03-13T00:10:30.040Z,10.20
2023-03-13T00:10:40.150Z,10.00
2023-03-13T00:10:50.222Z,9.90
2023-03-13T00:11:00.298Z,9.60
2023-03-13T00:11:10.400Z,9.30
2023-03-13T00:11:20.472Z,9.10
2023-03-13T00:11:30.585Z,9.60
2023-03-13T00:11:40.664Z,10.50
2023-03-13T00:11:50.780Z,10.80
2023-03-13T00:12:00.857Z,10.60
2023-03-13T00:12:10.958Z,9.90
2023-03-13T00:12:21.029Z,9.80
2023-03-13T00:12:31.130Z,9.80
2023-03-13T00:12:41.189Z,9.70
2023-03-13T00:12:51.300Z,10.30
2023-03-13T00:13:01.374Z,9.50
2023-03-13T00:13:11.474Z,9.60
2023-03-13T00:13:21.543Z,9.60
2023-03-13T00:13:31.625Z,10.50
2023-03-13T00:13:41.697Z,10.60
2023-03-13T00:13:51.778Z,10.40
2023-03-13T00:14:01.888Z,10.30
2023-03-13T00:14:11.978Z,10.00
2023-03-13T00:14:22.068Z,10.10
2023-03-13T00:14:32.144Z,9.60
2023-03-13T00:14:42.257Z,9.90
2023-03-13T00:14:52.329Z,9.90
2023-03-13T00:15:02.430Z,10.30
2023-03-13T00:15:12.507Z,10.00
2023-03-13T00:15:22.603Z,10.20
2023-03-13T00:15:32.688Z,9.40
2023-03-13T00:15:42.758Z,9.60
2023-03-13T00:15:52.835Z,9.60
2023-03-13T00:16:02.921Z,10.40
2023-03-13T00:16:13.017Z,10.60
2023-03-13T00:16:23.192Z,10.00
2023-03-13T00:16:33.169Z,10.20
2023-03-13T00:16:43.317Z,10.00
2023-03-13T00:16:53.341Z,10.00
2023-03-13T00:17:03.354Z,9.20
2023-03-13T00:17:13.440Z,9.30
2023-03-13T00:17:23.576Z,9.60
2023-03-13T00:17:33.675Z,9.60
2023-03-13T00:17:43.826Z,9.80
2023-03-13T00:17:53.957Z,9.40
2023-03-13T00:18:04.054Z,9.80
2023-03-13T00:18:14.126Z,9.40
2023-03-13T00:18:24.214Z,9.80
2023-03-13T00:18:34.325Z,10.20
2023-03-13T00:18:44.455Z,10.20
2023-03-13T00:18:54.563Z,10.50
2023-03-13T00:19:04.645Z,10.30
2023-03-13T00:19:14.778Z,10.00
2023-03-13T00:19:24.845Z,9.80
2023-03-13T00:19:34.959Z,9.60
2023-03-13T00:19:45.036Z,9.80
2023-03-13T00:19:55.128Z,10.10
2023-03-13T00:20:05.249Z,10.50
2023-03-13T00:20:15.347Z,10.40
2023-03-13T00:20:25.415Z,10.10
2023-03-13T00:20:35.513Z,9.50
2023-03-13T00:20:45.576Z,9.70
2023-03-13T00:20:55.682Z,9.90
2023-03-13T00:21:05.792Z,10.30
2023-03-13T00:21:15.897Z,10.20
2023-03-13T00:21:25.988Z,10.20
2023-03-13T00:21:36.072Z,9.80
2023-03-13T00:21:46.155Z,9.80
2023-03-13T00:21:56.252Z,9.40
2023-03-13T00:22:06.346Z,9.80
2023-03-13T00:22:16.446Z,10.10
2023-03-13T00:22:26.555Z,10.40
2023-03-13T00:22:36.628Z,10.10
2023-03-13T00:22:46.818Z,10.00
2023-03-13T00:22:56.736Z,10.30
2023-03-13T00:23:06.864Z,10.00
2023-03-13T00:23:16.995Z,10.20
2023-03-13T00:23:27.120Z,10.10
2023-03-13T00:23:37.200Z,10.40
2023-03-13T00:23:47.317Z,10.40
2023-03-13T00:23:57.377Z,10.60
2023-03-13T00:24:07.524Z,11.20
2023-03-13T00:24:17.638Z,10.80
2023-03-13T00:24:27.655Z,10.50
2023-03-13T00:24:37.747Z,9.80
2023-03-13T00:24:47.826Z,9.40
2023-03-13T00:24:57.925Z,9.90
2023-03-13T00:25:08.008Z,9.80
2023-03-13T00:25:18.141Z,10.30
2023-03-13T00:25:28.247Z,10.00
2023-03-13T00:25:38.413Z,9.90
2023-03-13T00:25:48.342Z,10.00
2023-03-13T00:25:58.434Z,10.30
2023-03-13T00:26:08.500Z,11.00
2023-03-13T00:26:18.601Z,11.50
2023-03-13T00:26:28.644Z,11.10
2023-03-13T00:26:38.730Z,10.10
2023-03-13T00:26:48.837Z,9.80
2023-03-13T00:26:58.944Z,9.90
2023-03-13T00:27:09.057Z,10.80
2023-03-13T00:27:19.133Z,10.70
2023-03-13T00:27:29.195Z,11.10
2023-03-13T00:27:39.234Z,10.20
2023-03-13T00:27:49.387Z,10.00
2023-03-13T00:27:59.453Z,9.70
2023-03-13T00:28:09.554Z,10.90
2023-03-13T00:28:19.626Z,10.80
2023-03-13T00:28:31.842Z,10.60
2023-03-13T00:28:39.951Z,9.70
2023-03-13T00:28:50.035Z,9.90
2023-03-13T00:29:00.129Z,10.30
2023-03-13T00:29:10.243Z,10.40
2023-03-13T00:29:20.334Z,10.10
2023-03-13T00:29:30.415Z,10.10
2023-03-13T00:29:40.505Z,10.10
2023-03-13T00:29:50.599Z,10.70
2023-03-13T00:30:00.692Z,10.70
2023-03-13T00:30:10.773Z,10.50
2023-03-13T00:30:20.952Z,10.70
2023-03-13T00:30:31.075Z,10.70
2023-03-13T00:30:41.012Z,10.90
2023-03-13T00:30:51.118Z,11.00
2023-03-13T00:31:01.284Z,11.10
2023-03-13T00:31:11.350Z,10.70
2023-03-13T00:31:21.672Z,9.70
2023-03-13T00:31:31.628Z,9.60
2023-03-13T00:31:41.593Z,9.70
2023-03-13T00:31:51.758Z,9.90
2023-03-13T00:32:01.945Z,10.40
2023-03-13T00:32:11.977Z,10.90
2023-03-13T00:32:22.106Z,10.90
2023-03-13T00:32:32.120Z,10.80
2023-03-13T00:32:42.282Z,10.40
2023-03-13T00:32:52.331Z,10.10
2023-03-13T00:33:02.355Z,9.90
2023-03-13T00:33:12.338Z,10.10
2023-03-13T00:33:22.433Z,10.90
2023-03-13T00:33:32.514Z,11.00
2023-03-13T00:33:42.614Z,10.90
2023-03-13T00:33:52.692Z,10.30
2023-03-13T00:34:02.801Z,10.20
2023-03-13T00:34:12.934Z,10.60
2023-03-13T00:34:23.052Z,10.90
2023-03-13T00:34:33.183Z,10.60
2023-03-13T00:34:43.293Z,10.50
2023-03-13T00:34:53.403Z,9.90
2023-03-13T00:35:03.497Z,10.30
2023-03-13T00:35:13.600Z,10.00
2023-03-13T00:35:23.728Z,10.70
2023-03-13T00:35:33.818Z,10.20
2023-03-13T00:35:43.958Z,10.30
2023-03-13T00:35:54.043Z,10.20
2023-03-13T00:36:04.142Z,10.60
2023-03-13T00:36:14.232Z,10.30
2023-03-13T00:36:24.312Z,9.80
2023-03-13T00:36:34.401Z,10.10
2023-03-13T00:36:44.538Z,10.20
2023-03-13T00:36:54.601Z,10.80
2023-03-13T00:37:04.737Z,10.60
2023-03-13T00:37:14.825Z,10.20
2023-03-13T00:37:24.912Z,10.10
2023-03-13T00:37:34.990Z,10.60
2023-03-13T00:37:45.114Z,11.40
2023-03-13T00:37:55.201Z,11.50
2023-03-13T00:38:05.355Z,11.30
2023-03-13T00:38:15.421Z,11.30
2023-03-13T00:38:25.531Z,11.20
2023-03-13T00:38:35.652Z,11.20
2023-03-13T00:38:45.764Z,10.80
2023-03-13T00:38:55.875Z,11.00
2023-03-13T00:39:05.983Z,10.90
2023-03-13T00:39:15.989Z,10.70
2023-03-13T00:39:26.064Z,10.10
2023-03-13T00:39:36.169Z,10.40
2023-03-13T00:39:46.331Z,10.30
2023-03-13T00:39:56.272Z,10.10
2023-03-13T00:40:06.361Z,10.00
2023-03-13T00:40:16.464Z,10.20
2023-03-13T00:40:26.562Z,10.80
2023-03-13T00:40:36.656Z,11.10
2023-03-13T00:40:46.738Z,11.70
2023-03-13T00:40:56.821Z,10.90
2023-03-13T00:41:06.901Z,10.60
2023-03-13T00:41:17.042Z,10.90
2023-03-13T00:41:27.146Z,11.20
2023-03-13T00:41:37.274Z,11.60
2023-03-13T00:41:47.361Z,11.10
2023-03-13T00:41:57.450Z,10.80
2023-03-13T00:42:07.541Z,10.80
2023-03-13T00:42:17.650Z,10.60
2023-03-13T00:42:27.804Z,11.00
2023-03-13T00:42:37.880Z,10.50
2023-03-13T00:42:48.000Z,10.90
2023-03-13T00:42:58.070Z,11.10
2023-03-13T00:43:08.209Z,11.50
2023-03-13T00:43:18.309Z,11.40
2023-03-13T00:43:28.431Z,11.80
2023-03-13T00:43:38.593Z,11.70
2023-03-13T00:43:48.695Z,11.20
2023-03-13T00:43:58.784Z,10.60
2023-03-13T00:44:08.858Z,10.30
2023-03-13T00:44:18.961Z,10.60
2023-03-13T00:44:29.038Z,10.90
2023-03-13T00:44:39.149Z,11.00
2023-03-13T00:44:49.219Z,10.50
2023-03-13T00:44:59.305Z,10.60
2023-03-13T00:45:09.379Z,10.10
2023-03-13T00:45:19.481Z,10.50
2023-03-13T00:45:29.591Z,10.30
2023-03-13T00:45:39.716Z,10.70
2023-03-13T00:45:49.849Z,10.60
2023-03-13T00:45:59.861Z,10.40
2023-03-13T00:46:09.895Z,10.30
2023-03-13T00:46:19.898Z,10.50
2023-03-13T00:46:29.911Z,10.30
2023-03-13T00:46:40.031Z,10.70
2023-03-13T00:46:50.140Z,10.50
2023-03-13T00:47:00.260Z,10.60
2023-03-13T00:47:10.370Z,10.70
2023-03-13T00:47:20.463Z,11.00
2023-03-13T00:47:30.556Z,11.20
2023-03-13T00:47:40.632Z,10.80
2023-03-13T00:47:50.719Z,10.30
2023-03-13T00:48:00.820Z,10.30
2023-03-13T00:48:10.920Z,10.40
2023-03-13T00:48:21.001Z,11.10
2023-03-13T00:48:31.120Z,11.10
2023-03-13T00:48:41.220Z,10.80
2023-03-13T00:48:51.300Z,10.60
2023-03-13T00:49:01.400Z,10.60
2023-03-13T00:49:11.493Z,10.80
2023-03-13T00:49:21.599Z,10.50
2023-03-13T00:49:31.670Z,10.90
2023-03-13T00:49:41.828Z,10.30
2023-03-13T00:49:51.918Z,10.00
2023-03-13T00:50:02.027Z,9.80
2023-03-13T00:50:12.114Z,10.00
2023-03-13T00:50:22.195Z,10.30
2023-03-13T00:50:32.310Z,11.00
2023-03-13T00:50:42.389Z,11.20
2023-03-13T00:50:52.511Z,11.20
2023-03-13T00:51:02.584Z,11.00
2023-03-13T00:51:12.739Z,10.40
2023-03-13T00:51:22.820Z,10.30
2023-03-13T00:51:32.897Z,9.40
2023-03-13T00:51:42.971Z,9.40
2023-03-13T00:51:53.059Z,9.40
2023-03-13T00:52:03.149Z,9.70
2023-03-13T00:52:13.220Z,10.40
2023-03-13T00:52:23.345Z,11.10
2023-03-13T00:52:33.425Z,11.30
2023-03-13T00:52:43.532Z,11.40
2023-03-13T00:52:53.618Z,11.20
2023-03-13T00:53:03.718Z,11.20
2023-03-13T00:53:13.854Z,10.60
2023-03-13T00:53:23.927Z,10.20
2023-03-13T00:53:34.019Z,10.40
2023-03-13T00:53:44.098Z,10.60
2023-03-13T00:53:54.202Z,10.30
2023-03-13T00:54:04.269Z,10.50
2023-03-13T00:54:14.382Z,10.60
2023-03-13T00:54:24.454Z,11.20
2023-03-13T00:54:34.558Z,10.80
2023-03-13T00:54:44.630Z,10.70
2023-03-13T00:54:54.720Z,10.50
2023-03-13T00:55:04.807Z,11.10
2023-03-13T00:55:14.916Z,11.20
2023-03-13T00:55:24.987Z,11.10
2023-03-13T00:55:35.068Z,11.20
2023-03-13T00:55:45.238Z,10.50
2023-03-13T00:55:55.337Z,10.80
2023-03-13T00:56:05.449Z,10.10
2023-03-13T00:56:15.552Z,10.90
2023-03-13T00:56:25.654Z,10.50
2023-03-13T00:56:35.736Z,10.80
2023-03-13T00:56:45.847Z,10.40
2023-03-13T00:56:55.983Z,10.40
2023-03-13T00:57:06.100Z,10.60
2023-03-13T00:57:16.196Z,11.00
2023-03-13T00:57:26.318Z,11.10
2023-03-13T00:57:36.470Z,11.30
2023-03-13T00:57:46.547Z,10.70
2023-03-13T00:57:56.635Z,10.80
2023-03-13T00:58:06.736Z,10.20
2023-03-13T00:58:16.842Z,10.40
2023-03-13T00:58:26.962Z,10.30
2023-03-13T00:58:37.074Z,10.80
2023-03-13T00:58:47.168Z,10.80
2023-03-13T00:58:57.265Z,10.60
2023-03-13T00:59:07.338Z,10.40
2023-03-13T00:59:17.445Z,10.50
2023-03-13T00:59:27.533Z,10.70
2023-03-13T00:59:37.641Z,10.60
2023-03-13T00:59:47.715Z,10.50
2023-03-13T00:59:57.815Z,10.90
2023-03-13T01:00:07.937Z,11.10
2023-03-13T01:00:17.997Z,10.70
2023-03-13T01:00:28.078Z,10.10
2023-03-13T01:00:38.144Z,9.90
2023-03-13T01:00:48.260Z,10.00
2023-03-13T01:00:58.330Z,10.80
2023-03-13T01:01:08.422Z,10.90
2023-03-13T01:01:18.538Z,10.80
2023-03-13T01:01:28.644Z,10.30
2023-03-13T01:01:38.697Z,10.70
2023-03-13T01:01:48.792Z,10.70
2023-03-13T01:01:58.866Z,10.60
2023-03-13T01:02:09.105Z,10.50
2023-03-13T01:02:19.135Z,10.60
2023-03-13T01:02:29.222Z,10.70
2023-03-13T01:02:39.272Z,10.60
2023-03-13T01:02:49.318Z,10.60
2023-03-13T01:02:59.304Z,11.00
2023-03-13T01:03:09.465Z,10.90
2023-03-13T01:03:19.567Z,11.00
2023-03-13T01:03:29.644Z,10.80
2023-03-13T01:03:39.815Z,10.60
2023-03-13T01:03:49.770Z,10.20
2023-03-13T01:03:59.909Z,9.90
2023-03-13T01:04:09.947Z,10.60
2023-03-13T01:04:20.047Z,11.10
2023-03-13T01:04:30.166Z,11.60
2023-03-13T01:04:40.250Z,10.60
2023-03-13T01:04:50.318Z,10.60
2023-03-13T01:05:00.408Z,10.50
2023-03-13T01:05:10.486Z,11.50
2023-03-13T01:05:20.552Z,11.60
2023-03-13T01:05:30.637Z,11.70
2023-03-13T01:05:40.710Z,11.20
2023-03-13T01:05:50.848Z,10.30
2023-03-13T01:06:00.949Z,10.00
2023-03-13T01:06:11.039Z,9.90
2023-03-13T01:06:21.150Z,10.20
2023-03-13T01:06:31.219Z,10.50
2023-03-13T01:06:41.311Z,10.90
2023-03-13T01:06:51.392Z,11.00
2023-03-13T01:07:01.470Z,10.70
2023-03-13T01:07:11.569Z,10.30
2023-03-13T01:07:21.661Z,10.40
2023-03-13T01:07:31.749Z,10.50
2023-03-13T01:07:41.953Z,10.90
2023-03-13T01:07:51.902Z,10.90
2023-03-13T01:08:02.001Z,10.90
2023-03-13T01:08:12.079Z,10.70
2023-03-13T01:08:22.182Z,10.60
2023-03-13T01:08:32.277Z,10.70
2023-03-13T01:08:42.360Z,10.30
2023-03-13T01:08:52.479Z,10.10
2023-03-13T01:09:02.590Z,10.00
2023-03-13T01:09:12.709Z,10.10
2023-03-13T01:09:22.836Z,10.30
2023-03-13T01:09:32.912Z,10.60
2023-03-13T01:09:43.024Z,10.60
2023-03-13T01:09:53.091Z,10.00
2023-03-13T01:10:03.154Z,9.80
2023-03-13T01:10:13.230Z,9.90
2023-03-13T01:10:23.271Z,10.40
2023-03-13T01:10:33.352Z,10.40
2023-03-13T01:10:43.421Z,11.00
2023-03-13T01:10:53.506Z,10.70
2023-03-13T01:11:03.603Z,11.00
2023-03-13T01:11:13.726Z,10.70
2023-03-13T01:11:23.795Z,10.90
2023-03-13T01:11:33.871Z,10.40
2023-03-13T01:11:43.962Z,10.00
2023-03-13T01:11:54.029Z,10.70
2023-03-13T01:12:04.183Z,10.90
2023-03-13T01:12:14.242Z,11.60
2023-03-13T01:12:24.328Z,11.30
2023-03-13T01:12:34.380Z,11.10
2023-03-13T01:12:44.454Z,10.50
2023-03-13T01:12:54.531Z,10.00
2023-03-13T01:13:04.629Z,10.10
2023-03-13T01:13:14.700Z,9.80
2023-03-13T01:13:24.781Z,10.30
2023-03-13T01:13:34.842Z,9.80
2023-03-13T01:13:44.908Z,10.20
2023-03-13T01:13:54.987Z,9.90
2023-03-13T01:14:05.054Z,10.50
2023-03-13T01:14:15.133Z,10.70
2023-03-13T01:14:25.202Z,10.70
2023-03-13T01:14:35.282Z,10.10
2023-03-13T01:14:45.371Z,9.70
2023-03-13T01:14:55.434Z,10.00
2023-03-13T01:15:05.516Z,9.70
2023-03-13T01:15:15.571Z,10.00
2023-03-13T01:15:25.669Z,9.50
2023-03-13T01:15:35.776Z,10.30
2023-03-13T01:15:45.884Z,10.00
2023-03-13T01:15:56.081Z,9.90
2023-03-13T01:16:06.081Z,10.60
2023-03-13T01:16:16.179Z,10.50
2023-03-13T01:16:26.309Z,11.00
2023-03-13T01:16:36.362Z,9.90
2023-03-13T01:16:46.503Z,10.10
2023-03-13T01:16:56.580Z,10.00
2023-03-13T01:17:06.641Z,10.50
2023-03-13T01:17:16.745Z,10.40
2023-03-13T01:17:26.920Z,10.50
2023-03-13T01:17:36.846Z,10.30
2023-03-13T01:17:46.997Z,10.60
2023-03-13T01:17:56.965Z,10.30
2023-03-13T01:18:07.109Z,10.00
2023-03-13T01:18:17.195Z,10.30
2023-03-13T01:18:27.293Z,10.20
2023-03-13T01:18:37.372Z,10.60
2023-03-13T01:18:47.474Z,10.10
2023-03-13T01:18:57.702Z,10.00
2023-03-13T01:19:07.642Z,9.60
2023-03-13T01:19:18.062Z,10.00
2023-03-13T01:19:27.983Z,10.40
2023-03-13T01:19:38.082Z,10.30
2023-03-13T01:19:48.152Z,9.80
2023-03-13T01:19:58.252Z,9.90
2023-03-13T01:20:08.353Z,10.30
2023-03-13T01:20:18.457Z,10.90
2023-03-13T01:20:28.594Z,11.00
2023-03-13T01:20:38.736Z,10.70
2023-03-13T01:20:48.811Z,10.20
2023-03-13T01:20:58.932Z,9.90
2023-03-13T01:21:08.994Z,9.60
2023-03-13T01:21:19.159Z,9.60
2023-03-13T01:21:29.231Z,9.70
2023-03-13T01:21:39.323Z,9.70
2023-03-13T01:21:49.396Z,9.60
2023-03-13T01:21:59.481Z,9.70
2023-03-13T01:22:09.563Z,10.00
2023-03-13T01:22:19.657Z,10.10
2023-03-13T01:22:29.753Z,10.20
2023-03-13T01:22:39.854Z,10.30
2023-03-13T01:22:49.950Z,10.40
2023-03-13T01:23:00.044Z,10.30
2023-03-13T01:23:10.153Z,10.30
2023-03-13T01:23:20.224Z,10.40
2023-03-13T01:23:30.329Z,10.00
2023-03-13T01:23:40.411Z,9.90
2023-03-13T01:23:50.527Z,9.70
2023-03-13T01:24:00.592Z,9.70
2023-03-13T01:24:10.691Z,9.40
2023-03-13T01:24:20.779Z,9.60
2023-03-13T01:24:30.888Z,9.30
2023-03-13T01:24:40.992Z,9.90
2023-03-13T01:24:51.142Z,9.70
2023-03-13T01:25:01.223Z,9.60
2023-03-13T01:25:11.313Z,9.70
2023-03-13T01:25:21.394Z,9.40
2023-03-13T01:25:31.491Z,9.80
2023-03-13T01:25:41.567Z,9.70
2023-03-13T01:25:51.634Z,9.90
2023-03-13T01:26:01.743Z,10.60
2023-03-13T01:26:11.832Z,10.60
2023-03-13T01:26:21.982Z,10.50
2023-03-13T01:26:32.059Z,10.00
2023-03-13T01:26:42.145Z,9.60
2023-03-13T01:26:52.242Z,10.00
2023-03-13T01:27:02.334Z,9.70
2023-03-13T01:27:12.434Z,9.90
2023-03-13T01:27:22.616Z,10.10
2023-03-13T01:27:32.693Z,10.60
2023-03-13T01:27:42.792Z,10.90
2023-03-13T01:27:52.881Z,10.90
2023-03-13T01:28:02.973Z,10.80
2023-03-13T01:28:13.051Z,10.50
2023-03-13T01:28:23.142Z,10.10
2023-03-13T01:28:33.250Z,9.70
2023-03-13T01:28:43.341Z,9.80
2023-03-13T01:28:53.423Z,9.70
2023-03-13T01:29:03.513Z,9.80
2023-03-13T01:29:13.603Z,10.00
2023-03-13T01:29:23.703Z,10.10
2023-03-13T01:29:33.812Z,10.30
2023-03-13T01:29:43.881Z,9.90
2023-03-13T01:29:53.992Z,9.90
2023-03-13T01:30:04.089Z,9.70
2023-03-13T01:30:14.184Z,9.50
2023-03-13T01:30:24.357Z,9.40
2023-03-13T01:30:34.433Z,9.90
2023-03-13T01:30:44.524Z,10.10
2023-03-13T01:30:54.632Z,10.00
2023-03-13T01:31:04.801Z,9.90
2023-03-13T01:31:14.794Z,10.00
2023-03-13T01:31:24.885Z,10.30
2023-03-13T01:31:34.893Z,10.20
2023-03-13T01:31:44.872Z,10.20
2023-03-13T01:31:54.964Z,9.70
2023-03-13T01:32:05.063Z,9.50
2023-03-13T01:32:15.136Z,9.10
2023-03-13T01:32:25.294Z,9.60
2023-03-13T01:32:35.251Z,10.10
2023-03-13T01:32:45.470Z,10.50
2023-03-13T01:32:55.469Z,10.20
2023-03-13T01:33:05.443Z,9.70
2023-03-13T01:33:15.521Z,9.50
2023-03-13T01:33:25.610Z,9.40
2023-03-13T01:33:35.692Z,9.30
2023-03-13T01:33:45.772Z,9.40
2023-03-13T01:33:55.868Z,9.50
2023-03-13T01:34:05.967Z,9.80
2023-03-13T01:34:16.038Z,9.90
2023-03-13T01:34:26.142Z,9.70
2023-03-13T01:34:36.286Z,9.50
2023-03-13T01:34:46.394Z,9.50
2023-03-13T01:34:56.502Z,9.50
2023-03-13T01:35:06.601Z,9.80
2023-03-13T01:35:16.754Z,10.20
2023-03-13T01:35:26.915Z,10.20
2023-03-13T01:35:37.022Z,10.50
2023-03-13T01:35:47.233Z,10.10
2023-03-13T01:35:57.301Z,9.70
2023-03-13T01:36:07.381Z,9.30
2023-03-13T01:36:17.485Z,9.60
2023-03-13T01:36:27.569Z,9.50
2023-03-13T01:36:37.709Z,9.00
2023-03-13T01:36:47.792Z,9.00
2023-03-13T01:36:57.882Z,9.40
2023-03-13T01:37:07.978Z,10.00
2023-03-13T01:37:18.069Z,10.40
2023-03-13T01:37:28.164Z,10.80
2023-03-13T01:37:38.286Z,10.90
2023-03-13T01:37:48.384Z,10.60
2023-03-13T01:37:58.486Z,10.20
2023-03-13T01:38:08.608Z,9.60
2023-03-13T01:38:18.693Z,9.40
2023-03-13T01:38:28.804Z,8.80
2023-03-13T01:38:38.893Z,9.10
2023-03-13T01:38:48.980Z,9.70
2023-03-13T01:38:59.072Z,9.80
2023-03-13T01:39:09.173Z,9.90
2023-03-13T01:39:19.248Z,9.70
2023-03-13T01:39:29.340Z,10.30
2023-03-13T01:39:39.430Z,10.50
2023-03-13T01:39:49.531Z,10.10
2023-03-13T01:39:59.634Z,10.00
2023-03-13T01:40:09.710Z,9.50
2023-03-13T01:40:19.864Z,9.50
2023-03-13T01:40:29.975Z,9.90
2023-03-13T01:40:39.981Z,9.60
2023-03-13T01:40:50.069Z,9.00
2023-03-13T01:41:00.158Z,8.90
2023-03-13T01:41:10.233Z,9.30
2023-03-13T01:41:20.330Z,10.10
2023-03-13T01:41:30.414Z,10.10
2023-03-13T01:41:40.502Z,10.10
2023-03-13T01:41:50.591Z,10.10
2023-03-13T01:42:00.751Z,9.40
2023-03-13T01:42:10.833Z,9.40
2023-03-13T01:42:20.906Z,9.60
2023-03-13T01:42:31.017Z,10.20
2023-03-13T01:42:41.091Z,10.30
2023-03-13T01:42:51.219Z,9.60
2023-03-13T01:43:01.300Z,9.70
2023-03-13T01:43:14.515Z,9.40
2023-03-13T01:43:27.047Z,9.40
2023-03-13T01:43:32.544Z,9.50
2023-03-13T01:43:42.620Z,9.10
2023-03-13T01:43:52.716Z,9.10
2023-03-13T01:44:02.796Z,9.20
2023-03-13T01:44:12.890Z,9.40
2023-03-13T01:44:22.970Z,9.80
2023-03-13T01:44:33.056Z,10.10
2023-03-13T01:44:43.137Z,10.00
2023-03-13T01:44:53.246Z,10.30
2023-03-13T01:45:03.357Z,9.80
2023-03-13T01:45:13.461Z,10.00
2023-03-13T01:45:23.552Z,10.10
2023-03-13T01:45:33.682Z,10.10
2023-03-13T01:45:43.768Z,9.70
2023-03-13T01:45:53.876Z,9.10
2023-03-13T01:46:04.036Z,9.30
2023-03-13T01:46:14.206Z,9.80
2023-03-13T01:46:24.221Z,9.90
2023-03-13T01:46:34.459Z,9.40
2023-03-13T01:46:44.512Z,8.90
2023-03-13T01:46:54.457Z,8.80
2023-03-13T01:47:04.554Z,9.30
2023-03-13T01:47:14.632Z,9.30
2023-03-13T01:47:24.714Z,9.60
2023-03-13T01:47:34.830Z,9.30
2023-03-13T01:47:47.090Z,9.40
2023-03-13T01:47:55.030Z,9.00
2023-03-13T01:48:05.118Z,9.20
2023-03-13T01:48:15.215Z,9.50
2023-03-13T01:48:25.291Z,9.30
2023-03-13T01:48:35.414Z,8.90
2023-03-13T01:48:45.477Z,9.10
2023-03-13T01:48:55.569Z,9.20
2023-03-13T01:49:05.650Z,9.70
2023-03-13T01:49:15.755Z,9.40
2023-03-13T01:49:25.808Z,9.80
2023-03-13T01:49:35.911Z,9.70
2023-03-13T01:49:45.978Z,9.70
2023-03-13T01:49:56.077Z,9.40
2023-03-13T01:50:06.147Z,9.10
2023-03-13T01:50:16.221Z,8.70
2023-03-13T01:50:26.342Z,9.00
2023-03-13T01:50:36.438Z,9.20
2023-03-13T01:50:46.521Z,10.00
2023-03-13T01:50:56.618Z,9.90
2023-03-13T01:51:06.704Z,9.80
2023-03-13T01:51:16.810Z,9.30
2023-03-13T01:51:26.924Z,9.20
2023-03-13T01:51:37.033Z,9.30
2023-03-13T01:51:47.118Z,9.50
2023-03-13T01:51:57.232Z,9.90
2023-03-13T01:52:07.319Z,10.00
2023-03-13T01:52:17.414Z,9.30
2023-03-13T01:52:27.495Z,9.40
2023-03-13T01:52:37.747Z,9.10
2023-03-13T01:52:47.638Z,9.40
2023-03-13T01:52:57.738Z,8.80
2023-03-13T01:53:07.845Z,8.70
2023-03-13T01:53:17.909Z,8.30
2023-03-13T01:53:28.010Z,9.10
2023-03-13T01:53:38.089Z,9.70
2023-03-13T01:53:48.219Z,10.00
2023-03-13T01:53:58.300Z,9.50
2023-03-13T01:54:08.427Z,9.20
2023-03-13T01:54:18.488Z,8.80
2023-03-13T01:54:28.630Z,9.20
2023-03-13T01:54:38.718Z,9.30
2023-03-13T01:54:48.858Z,9.20
2023-03-13T01:54:58.968Z,9.10
2023-03-13T01:55:09.049Z,8.70
2023-03-13T01:55:19.157Z,8.70
2023-03-13T01:55:29.227Z,9.10
2023-03-13T01:55:39.313Z,9.10
2023-03-13T01:55:49.398Z,9.60
2023-03-13T01:55:59.499Z,9.40
2023-03-13T01:56:09.586Z,9.60
2023-03-13T01:56:19.689Z,9.10
2023-03-13T01:56:29.779Z,8.90
2023-03-13T01:56:39.862Z,9.00
2023-03-13T01:56:49.940Z,8.90
2023-03-13T01:57:00.038Z,8.70
2023-03-13T01:57:10.050Z,8.30
2023-03-13T01:57:20.141Z,8.60
2023-03-13T01:57:30.321Z,8.90
2023-03-13T01:57:40.424Z,9.30
2023-03-13T01:57:50.514Z,9.00
2023-03-13T01:58:00.610Z,9.00
2023-03-13T01:58:10.729Z,8.90
2023-03-13T01:58:20.759Z,9.10
2023-03-13T01:58:30.848Z,8.70
2023-03-13T01:58:40.919Z,8.90
2023-03-13T01:58:51.022Z,8.80
2023-03-13T01:59:01.089Z,9.00
2023-03-13T01:59:11.189Z,8.90
2023-03-13T01:59:21.278Z,9.00
2023-03-13T01:59:31.256Z,9.00
2023-03-13T01:59:41.354Z,8.90
2023-03-13T01:59:51.428Z,8.80
2023-03-13T02:00:01.520Z,8.40
2023-03-13T02:00:11.619Z,8.40
2023-03-13T02:00:21.732Z,8.30
2023-03-13T02:00:31.818Z,8.10
2023-03-13T02:00:41.960Z,8.30
2023-03-13T02:00:52.039Z,8.50
2023-03-13T02:01:02.119Z,8.90
2023-03-13T02:01:12.245Z,9.20
2023-03-13T02:01:22.342Z,9.00
2023-03-13T02:01:32.494Z,9.40
2023-03-13T02:01:42.536Z,9.10
2023-03-13T02:01:52.529Z,8.80
2023-03-13T02:02:02.762Z,8.30
2023-03-13T02:02:12.743Z,8.00
2023-03-13T02:02:22.924Z,8.70
2023-03-13T02:02:32.868Z,9.10
2023-03-13T02:02:43.003Z,9.40
2023-03-13T02:02:53.149Z,9.20
2023-03-13T02:03:03.420Z,9.00
2023-03-13T02:03:13.426Z,9.10
2023-03-13T02:03:23.492Z,8.90
2023-03-13T02:03:33.579Z,9.10
2023-03-13T02:03:43.667Z,8.40
2023-03-13T02:03:53.750Z,8.80
2023-03-13T02:04:03.838Z,8.70
2023-03-13T02:04:13.945Z,9.20
2023-03-13T02:04:24.042Z,9.20
2023-03-13T02:04:34.157Z,8.90
2023-03-13T02:04:44.138Z,8.80
2023-03-13T02:04:54.247Z,8.20
2023-03-13T02:05:04.329Z,8.60
2023-03-13T02:05:14.410Z,8.40
2023-03-13T02:05:24.509Z,8.10
2023-03-13T02:05:34.593Z,7.80
2023-03-13T02:05:44.665Z,7.80
2023-03-13T02:05:54.782Z,8.50
2023-03-13T02:06:04.867Z,8.60
2023-03-13T02:06:14.945Z,8.60
2023-03-13T02:06:25.037Z,8.30
2023-03-13T02:06:35.160Z,8.70
2023-03-13T02:06:45.275Z,9.30
2023-03-13T02:06:55.351Z,8.60
2023-03-13T02:07:05.459Z,8.60
2023-03-13T02:07:15.556Z,8.30
2023-03-13T02:07:25.668Z,8.90
2023-03-13T02:07:35.903Z,8.50
2023-03-13T02:07:45.831Z,8.00
2023-03-13T02:07:55.905Z,8.30
2023-03-13T02:08:06.013Z,8.30
2023-03-13T02:08:16.087Z,8.10
2023-03-13T02:08:26.187Z,7.90
2023-03-13T02:08:36.260Z,7.90
2023-03-13T02:08:46.392Z,8.40
2023-03-13T02:08:56.479Z,8.10
2023-03-13T02:09:06.609Z,8.40
2023-03-13T02:09:16.578Z,8.30
2023-03-13T02:09:26.681Z,8.70
2023-03-13T02:09:36.748Z,8.40
2023-03-13T02:09:46.829Z,8.10
2023-03-13T02:09:56.906Z,8.60
2023-03-13T02:10:07.029Z,9.20
2023-03-13T02:10:17.104Z,9.20
2023-03-13T02:10:27.218Z,8.50
2023-03-13T02:10:37.251Z,8.30
2023-03-13T02:10:47.354Z,8.30
2023-03-13T02:10:57.424Z,8.60
2023-03-13T02:11:07.507Z,8.40
2023-03-13T02:11:17.603Z,8.60
2023-03-13T02:11:27.721Z,8.30
2023-03-13T02:11:37.798Z,8.50
2023-03-13T02:11:47.890Z,8.70
2023-03-13T02:11:57.956Z,9.10